createdAt,value
2017-11-27T00:02:15.853Z,3.80
2017-11-27T00:04:43.745Z,3.80
2017-11-27T00:07:11.242Z,3.80
2017-11-27T00:09:39.469Z,3.70
2017-11-27T00:12:06.990Z,3.70
2017-11-27T00:14:34.482Z,3.70
2017-11-27T00:17:02.710Z,3.60
2017-11-27T00:19:30.285Z,3.60
2017-11-27T00:21:58.513Z,3.50
2017-11-27T00:24:26.092Z,3.50
2017-11-27T00:26:54.350Z,3.50
2017-11-27T00:29:22.607Z,3.50
2017-11-27T00:31:50.841Z,3.50
2017-11-27T00:34:18.416Z,3.40
2017-11-27T00:36:46.667Z,3.40
2017-11-27T00:39:14.895Z,3.40
2017-11-27T00:41:42.354Z,3.40
2017-11-27T00:44:09.918Z,3.40
2017-11-27T00:46:38.149Z,3.30
2017-11-27T00:49:05.619Z,3.30
2017-11-27T00:51:33.894Z,3.40
2017-11-27T00:54:02.121Z,3.40
2017-11-27T00:56:29.581Z,3.30
2017-11-27T00:58:57.819Z,3.40
2017-11-27T01:01:25.305Z,3.40
2017-11-27T01:03:52.781Z,3.40
2017-11-27T01:06:20.245Z,3.50
2017-11-27T01:08:47.811Z,3.50
2017-11-27T01:11:16.070Z,3.50
2017-11-27T01:13:44.335Z,3.50
2017-11-27T01:16:12.599Z,3.50
2017-11-27T01:18:40.833Z,3.50
2017-11-27T01:21:08.303Z,3.50
2017-11-27T01:23:36.554Z,3.50
2017-11-27T01:26:04.781Z,3.60
2017-11-27T01:28:32.258Z,3.60
2017-11-27T01:31:00.488Z,3.70
2017-11-27T01:33:29.156Z,3.70
2017-11-27T01:35:56.730Z,3.70
2017-11-27T01:38:24.970Z,3.70
2017-11-27T01:40:52.529Z,3.70
2017-11-27T01:43:20.757Z,3.70
2017-11-27T01:45:48.329Z,3.70
2017-11-27T01:48:15.793Z,3.70
2017-11-27T01:50:43.316Z,3.70
2017-11-27T01:53:11.566Z,3.70
2017-11-27T01:55:39.026Z,3.70
2017-11-27T01:58:07.250Z,3.70
2017-11-27T02:00:34.723Z,3.70
2017-11-27T02:03:02.962Z,3.80
2017-11-27T02:05:30.526Z,3.80
2017-11-27T02:07:58.761Z,3.80
2017-11-27T02:10:26.226Z,3.80
2017-11-27T02:12:54.490Z,3.80
2017-11-27T02:15:22.715Z,3.80
2017-11-27T02:17:50.186Z,3.80
2017-11-27T02:20:18.445Z,3.70
2017-11-27T02:22:46.678Z,3.70
2017-11-27T02:25:14.153Z,3.70
2017-11-27T02:27:42.395Z,3.70
2017-11-27T02:30:09.862Z,3.70
2017-11-27T02:32:38.088Z,3.60
2017-11-27T02:35:05.587Z,3.60
2017-11-27T02:37:33.077Z,3.60
2017-11-27T02:40:00.557Z,3.70
2017-11-27T02:42:28.039Z,3.70
2017-11-27T02:44:55.523Z,3.70
2017-11-27T02:47:23.750Z,3.80
2017-11-27T02:49:51.238Z,3.80
2017-11-27T02:52:18.729Z,3.80
2017-11-27T02:54:46.186Z,3.90
2017-11-27T02:57:13.750Z,3.90
2017-11-27T02:59:42.113Z,3.90
2017-11-27T03:02:10.341Z,4.00
2017-11-27T03:04:37.818Z,4.00
2017-11-27T03:07:06.058Z,4.10
2017-11-27T03:09:33.522Z,4.10
2017-11-27T03:12:01.785Z,4.10
2017-11-27T03:14:30.039Z,4.20
2017-11-27T03:16:58.291Z,4.20
2017-11-27T03:19:25.755Z,4.20
2017-11-27T03:21:53.217Z,4.20
2017-11-27T03:24:20.693Z,4.20
2017-11-27T03:26:48.162Z,4.20
2017-11-27T03:29:16.390Z,4.20
2017-11-27T03:31:43.865Z,4.20
2017-11-27T03:34:12.142Z,4.20
2017-11-27T03:36:39.623Z,4.20
2017-11-27T03:39:07.114Z,4.20
2017-11-27T03:41:35.965Z,4.30
2017-11-27T03:44:03.430Z,4.30
2017-11-27T03:46:31.667Z,4.30
2017-11-27T03:48:59.226Z,4.30
2017-11-27T03:51:27.489Z,4.40
2017-11-27T03:53:55.753Z,4.40
2017-11-27T03:56:23.982Z,4.40
2017-11-27T03:58:51.461Z,4.40
2017-11-27T04:01:19.710Z,4.40
2017-11-27T04:03:48.077Z,4.40
2017-11-27T04:06:16.337Z,4.40
2017-11-27T04:08:44.593Z,4.40
2017-11-27T04:11:12.860Z,4.40
2017-11-27T04:13:41.106Z,4.40
2017-11-27T04:16:08.659Z,4.40
2017-11-27T04:18:36.890Z,4.40
2017-11-27T04:21:04.391Z,4.40
2017-11-27T04:23:31.906Z,4.50
2017-11-27T04:26:00.134Z,4.50
2017-11-27T04:28:27.594Z,4.50
2017-11-27T04:30:55.146Z,4.50
2017-11-27T04:33:23.510Z,4.40
2017-11-27T04:35:51.738Z,4.40
2017-11-27T04:38:19.218Z,4.40
2017-11-27T04:40:47.451Z,4.40
2017-11-27T04:43:14.919Z,4.40
2017-11-27T04:45:43.185Z,4.50
2017-11-27T04:48:11.438Z,4.50
2017-11-27T04:50:39.695Z,4.40
2017-11-27T04:53:07.922Z,4.40
2017-11-27T04:55:35.510Z,4.40
2017-11-27T04:58:03.735Z,4.40
2017-11-27T05:00:31.299Z,4.40
2017-11-27T05:02:59.530Z,4.40
2017-11-27T05:05:26.997Z,4.40
2017-11-27T05:07:55.243Z,4.40
2017-11-27T05:10:22.801Z,4.40
2017-11-27T05:12:51.022Z,4.40
2017-11-27T05:15:18.490Z,4.40
2017-11-27T05:17:45.952Z,4.40
2017-11-27T05:20:14.189Z,4.40
2017-11-27T05:22:41.650Z,4.40
2017-11-27T05:25:09.911Z,4.40
2017-11-27T05:27:38.139Z,4.30
2017-11-27T05:30:05.593Z,4.30
2017-11-27T05:32:33.155Z,4.30
2017-11-27T05:35:01.414Z,4.20
2017-11-27T05:37:29.677Z,4.20
2017-11-27T05:39:58.038Z,4.10
2017-11-27T05:42:26.293Z,4.10
2017-11-27T05:44:54.525Z,4.10
2017-11-27T05:47:22.093Z,4.10
2017-11-27T05:49:50.361Z,4.00
2017-11-27T05:52:18.626Z,4.00
2017-11-27T05:54:46.854Z,4.00
2017-11-27T05:57:14.327Z,4.00
2017-11-27T05:59:42.565Z,4.10
2017-11-27T06:02:10.123Z,4.10
2017-11-27T06:04:38.350Z,4.10
2017-11-27T06:07:05.827Z,4.10
2017-11-27T06:09:34.087Z,4.20
2017-11-27T06:12:02.350Z,4.20
2017-11-27T06:14:30.594Z,4.20
2017-11-27T06:16:59.562Z,4.20
2017-11-27T06:19:27.028Z,4.20
2017-11-27T06:21:55.282Z,4.30
2017-11-27T06:24:23.511Z,4.30
2017-11-27T06:26:50.982Z,4.30
2017-11-27T06:29:18.527Z,4.30
2017-11-27T06:31:46.069Z,4.30
2017-11-27T06:34:14.334Z,4.40
2017-11-27T06:36:42.574Z,4.40
2017-11-27T06:39:10.142Z,4.40
2017-11-27T06:41:38.365Z,4.40
2017-11-27T06:44:05.838Z,4.40
2017-11-27T06:46:34.064Z,4.40
2017-11-27T06:49:01.526Z,4.40
2017-11-27T06:51:28.998Z,4.40
2017-11-27T06:53:56.539Z,4.50
2017-11-27T06:56:24.782Z,4.60
2017-11-27T06:58:53.051Z,4.60
2017-11-27T07:01:21.274Z,4.60
2017-11-27T07:03:48.725Z,4.60
2017-11-27T07:06:16.287Z,4.60
2017-11-27T07:08:43.743Z,4.70
2017-11-27T07:11:11.963Z,4.70
2017-11-27T07:13:39.634Z,4.70
2017-11-27T07:16:07.898Z,4.70
2017-11-27T07:18:36.127Z,4.70
2017-11-27T07:21:03.698Z,4.70
2017-11-27T07:23:31.963Z,4.70
2017-11-27T07:26:00.219Z,4.80
2017-11-27T07:28:28.445Z,4.80
2017-11-27T07:30:55.906Z,4.80
2017-11-27T07:33:23.381Z,4.80
2017-11-27T07:35:50.845Z,4.80
2017-11-27T07:38:24.154Z,4.90
2017-11-27T07:40:51.640Z,4.90
2017-11-27T07:43:19.902Z,4.90
2017-11-27T07:45:48.159Z,4.90
2017-11-27T07:48:16.421Z,4.80
2017-11-27T07:50:44.681Z,4.80
2017-11-27T07:53:12.915Z,4.80
2017-11-27T07:55:40.378Z,4.80
2017-11-27T07:58:07.927Z,4.80
2017-11-27T08:00:36.183Z,4.80
2017-11-27T08:03:04.446Z,4.80
2017-11-27T08:05:32.685Z,4.80
2017-11-27T08:08:00.142Z,4.80
2017-11-27T08:10:28.413Z,4.80
2017-11-27T08:12:56.646Z,4.70
2017-11-27T08:15:24.102Z,4.70
2017-11-27T08:17:51.574Z,4.80
2017-11-27T08:20:19.098Z,4.80
2017-11-27T08:22:47.411Z,4.80
2017-11-27T08:25:14.889Z,4.70
2017-11-27T08:27:42.442Z,4.70
2017-11-27T08:30:10.697Z,4.80
2017-11-27T08:32:38.943Z,4.80
2017-11-27T08:35:06.409Z,4.80
2017-11-27T08:37:34.633Z,4.80
2017-11-27T08:40:02.110Z,4.80
2017-11-27T08:42:30.334Z,4.90
2017-11-27T08:44:57.786Z,4.80
2017-11-27T08:47:25.257Z,4.90
2017-11-27T08:49:53.478Z,4.90
2017-11-27T08:52:20.929Z,4.80
2017-11-27T08:54:48.490Z,4.90
2017-11-27T08:57:16.754Z,4.90
2017-11-27T08:59:44.999Z,4.90
2017-11-27T09:02:12.558Z,4.90
2017-11-27T09:04:40.786Z,4.90
2017-11-27T09:07:08.362Z,4.90
2017-11-27T09:09:36.581Z,4.90
2017-11-27T09:12:04.045Z,4.80
2017-11-27T09:14:31.510Z,4.90
2017-11-27T09:16:59.758Z,4.90
2017-11-27T09:19:27.985Z,4.90
2017-11-27T09:21:55.459Z,4.80
2017-11-27T09:24:23.698Z,4.90
2017-11-27T09:26:51.270Z,4.90
2017-11-27T09:29:19.489Z,4.90
2017-11-27T09:31:46.951Z,4.90
2017-11-27T09:34:14.510Z,4.90
2017-11-27T09:36:42.738Z,4.90
2017-11-27T09:39:10.215Z,4.90
2017-11-27T09:41:38.450Z,4.90
2017-11-27T09:44:05.926Z,4.90
2017-11-27T09:46:33.390Z,5.00
2017-11-27T09:49:00.850Z,5.00
2017-11-27T09:51:28.322Z,5.10
2017-11-27T09:53:55.773Z,5.00
2017-11-27T09:56:24.012Z,5.10
2017-11-27T09:58:51.582Z,5.10
2017-11-27T10:01:19.806Z,5.20
2017-11-27T10:03:47.397Z,5.10
2017-11-27T10:06:15.646Z,5.20
2017-11-27T10:08:43.867Z,5.20
2017-11-27T10:11:11.347Z,5.20
2017-11-27T10:13:39.612Z,5.20
2017-11-27T10:16:07.866Z,5.20
2017-11-27T10:18:36.130Z,5.20
2017-11-27T10:21:04.386Z,5.20
2017-11-27T10:23:32.651Z,5.20
2017-11-27T10:26:00.878Z,5.30
2017-11-27T10:28:28.333Z,5.20
2017-11-27T10:30:55.890Z,5.30
2017-11-27T10:33:24.159Z,5.30
2017-11-27T10:35:52.374Z,5.40
2017-11-27T10:38:19.874Z,5.40
2017-11-27T10:40:48.114Z,5.50
2017-11-27T10:43:16.374Z,5.50
2017-11-27T10:45:44.618Z,5.60
2017-11-27T10:48:12.086Z,5.60
2017-11-27T10:50:40.306Z,5.60
2017-11-27T10:53:07.880Z,5.60
2017-11-27T10:55:36.107Z,5.70
2017-11-27T10:58:03.561Z,5.70
2017-11-27T11:00:47.407Z,5.70
2017-11-27T11:03:15.631Z,5.80
2017-11-27T11:05:43.106Z,5.80
2017-11-27T11:08:11.332Z,5.90
2017-11-27T11:10:38.809Z,5.80
2017-11-27T11:13:07.034Z,5.90
2017-11-27T11:15:34.495Z,5.90
2017-11-27T11:18:01.966Z,5.90
2017-11-27T11:20:29.529Z,5.90
2017-11-27T11:22:57.091Z,5.90
2017-11-27T11:25:24.548Z,6.00
2017-11-27T11:27:52.021Z,6.00
2017-11-27T11:30:19.485Z,6.00
2017-11-27T11:32:46.939Z,6.00
2017-11-27T11:35:14.409Z,6.10
2017-11-27T11:37:41.889Z,6.10
2017-11-27T11:40:10.131Z,6.10
2017-11-27T11:42:37.694Z,6.10
2017-11-27T11:45:05.952Z,6.10
2017-11-27T11:47:34.177Z,6.20
2017-11-27T11:50:01.664Z,6.20
2017-11-27T11:52:30.014Z,6.20
2017-11-27T11:54:58.280Z,6.20
2017-11-27T11:57:26.535Z,6.30
2017-11-27T11:59:54.766Z,6.30
2017-11-27T12:02:22.227Z,6.30
2017-11-27T12:04:49.686Z,6.30
2017-11-27T12:07:17.941Z,6.40
2017-11-27T12:09:46.198Z,6.40
2017-11-27T12:12:14.422Z,6.40
2017-11-27T12:14:41.882Z,6.40
2017-11-27T12:17:09.365Z,6.40
2017-11-27T12:19:36.887Z,6.50
2017-11-27T12:22:05.114Z,6.50
2017-11-27T12:24:32.585Z,6.40
2017-11-27T12:27:00.834Z,6.50
2017-11-27T12:29:28.387Z,6.50
2017-11-27T12:31:56.605Z,6.50
2017-11-27T12:34:24.083Z,6.50
2017-11-27T12:36:51.534Z,6.50
2017-11-27T12:39:19.761Z,6.60
2017-11-27T12:41:47.234Z,6.50
2017-11-27T12:44:15.494Z,6.60
2017-11-27T12:46:43.720Z,6.60
2017-11-27T12:49:11.307Z,6.60
2017-11-27T12:51:39.522Z,6.60
2017-11-27T12:54:06.979Z,6.60
2017-11-27T12:56:34.438Z,6.70
2017-11-27T12:59:02.662Z,6.70
2017-11-27T13:01:30.127Z,6.70
2017-11-27T13:03:57.682Z,6.70
2017-11-27T13:06:25.910Z,6.70
2017-11-27T13:08:53.386Z,6.70
2017-11-27T13:11:21.633Z,6.80
2017-11-27T13:13:49.190Z,6.70
2017-11-27T13:16:17.454Z,6.70
2017-11-27T13:18:45.702Z,6.70
2017-11-27T13:21:13.164Z,6.70
2017-11-27T13:23:41.390Z,6.80
2017-11-27T13:26:08.869Z,6.80
2017-11-27T13:28:36.326Z,6.80
2017-11-27T13:31:03.782Z,6.80
2017-11-27T13:33:31.278Z,6.80
2017-11-27T13:35:59.517Z,6.90
2017-11-27T13:38:27.002Z,6.80
2017-11-27T13:40:55.206Z,6.90
2017-11-27T13:43:22.678Z,6.90
2017-11-27T13:45:50.229Z,6.90
2017-11-27T13:48:18.491Z,6.90
2017-11-27T13:50:46.722Z,6.90
2017-11-27T13:53:14.190Z,6.90
2017-11-27T13:55:42.447Z,7.00
2017-11-27T13:58:10.665Z,7.00
2017-11-27T14:00:38.150Z,7.00
2017-11-27T14:03:06.374Z,7.00
2017-11-27T14:05:33.829Z,7.00
2017-11-27T14:08:01.394Z,7.00
2017-11-27T14:10:29.658Z,7.00
2017-11-27T14:12:57.875Z,7.10
2017-11-27T14:15:25.343Z,7.10
2017-11-27T14:17:52.805Z,7.10
2017-11-27T14:20:21.058Z,7.10
2017-11-27T14:22:49.295Z,7.10
2017-11-27T14:25:16.745Z,7.10
2017-11-27T14:27:44.298Z,7.10
2017-11-27T14:30:12.529Z,7.10
2017-11-27T14:32:39.990Z,7.10
2017-11-27T14:35:07.542Z,7.10
2017-11-27T14:37:35.774Z,7.10
2017-11-27T14:40:03.246Z,7.10
2017-11-27T14:42:31.506Z,7.10
2017-11-27T14:44:59.734Z,7.20
2017-11-27T14:47:27.191Z,7.20
2017-11-27T14:49:54.751Z,7.20
2017-11-27T14:52:23.020Z,7.20
2017-11-27T14:54:51.259Z,7.30
2017-11-27T14:57:18.734Z,7.20
2017-11-27T14:59:46.262Z,7.30
2017-11-27T15:02:14.482Z,7.30
2017-11-27T15:04:41.958Z,7.30
2017-11-27T15:07:10.202Z,7.30
2017-11-27T15:09:37.762Z,7.30
2017-11-27T15:12:05.998Z,7.40
2017-11-27T15:14:33.565Z,7.30
2017-11-27T15:17:01.832Z,7.40
2017-11-27T15:19:30.066Z,7.40
2017-11-27T15:21:57.630Z,7.40
2017-11-27T15:24:25.890Z,7.40
2017-11-27T15:26:54.109Z,7.40
2017-11-27T15:29:21.692Z,7.40
2017-11-27T15:31:49.923Z,7.40
2017-11-27T15:34:17.398Z,7.40
2017-11-27T15:36:45.650Z,7.40
2017-11-27T15:39:13.203Z,7.40
2017-11-27T15:41:41.466Z,7.50
2017-11-27T15:44:09.775Z,7.40
2017-11-27T15:46:37.234Z,7.40
2017-11-27T15:49:04.703Z,7.40
2017-11-27T15:51:32.938Z,7.50
2017-11-27T15:54:00.402Z,7.50
2017-11-27T15:56:28.631Z,7.50
2017-11-27T15:58:56.086Z,7.50
2017-11-27T16:01:23.570Z,7.50
2017-11-27T16:03:51.094Z,7.50
2017-11-27T16:06:19.321Z,7.50
2017-11-27T16:08:46.800Z,7.50
2017-11-27T16:11:15.054Z,7.60
2017-11-27T16:13:43.902Z,7.60
2017-11-27T16:16:12.163Z,7.60
2017-11-27T16:18:39.656Z,7.60
2017-11-27T16:21:07.116Z,7.60
2017-11-27T16:23:34.586Z,7.60
2017-11-27T16:26:02.158Z,7.60
2017-11-27T16:28:30.386Z,7.60
2017-11-27T16:30:57.860Z,7.50
2017-11-27T16:33:26.087Z,7.50
2017-11-27T16:35:53.668Z,7.50
2017-11-27T16:38:21.956Z,7.50
2017-11-27T16:40:49.427Z,7.50
2017-11-27T16:43:16.894Z,7.50
2017-11-27T16:45:44.397Z,7.50
2017-11-27T16:48:11.857Z,7.50
2017-11-27T16:50:39.338Z,7.50
2017-11-27T16:53:07.599Z,7.50
2017-11-27T16:55:35.833Z,7.50
2017-11-27T16:58:03.404Z,7.50
2017-11-27T17:00:31.659Z,7.50
2017-11-27T17:02:59.881Z,7.50
2017-11-27T17:05:27.370Z,7.50
2017-11-27T17:07:55.678Z,7.50
2017-11-27T17:10:23.142Z,7.50
2017-11-27T17:12:50.606Z,7.40
2017-11-27T17:15:18.917Z,7.50
2017-11-27T17:17:46.412Z,7.50
2017-11-27T17:20:14.646Z,7.50
2017-11-27T17:22:42.114Z,7.50
2017-11-27T17:25:10.352Z,7.50
2017-11-27T17:27:37.818Z,7.50
2017-11-27T17:30:06.067Z,7.50
2017-11-27T17:32:33.531Z,7.50
2017-11-27T17:35:00.993Z,7.50
2017-11-27T17:37:28.463Z,7.50
2017-11-27T17:39:55.927Z,7.50
2017-11-27T17:42:23.395Z,7.50
2017-11-27T17:44:51.639Z,7.50
2017-11-27T17:47:19.867Z,7.50
2017-11-27T17:49:47.334Z,7.50
2017-11-27T17:52:14.807Z,7.50
2017-11-27T17:54:42.280Z,7.60
2017-11-27T17:57:09.772Z,7.60
2017-11-27T17:59:38.026Z,7.60
2017-11-27T18:02:06.259Z,7.50
2017-11-27T18:04:33.734Z,7.50
2017-11-27T18:07:01.987Z,7.50
2017-11-27T18:09:30.223Z,7.50
2017-11-27T18:11:57.710Z,7.50
2017-11-27T18:14:25.174Z,7.50
2017-11-27T18:16:52.638Z,7.50
2017-11-27T18:19:20.117Z,7.60
2017-11-27T18:21:48.367Z,7.60
2017-11-27T18:24:15.918Z,7.60
2017-11-27T18:26:44.181Z,7.70
2017-11-27T18:29:12.416Z,7.70
2017-11-27T18:31:39.982Z,7.60
2017-11-27T18:34:08.219Z,7.70
2017-11-27T18:36:35.686Z,7.60
2017-11-27T18:39:03.955Z,7.70
2017-11-27T18:41:32.206Z,7.70
2017-11-27T18:44:00.466Z,7.70
2017-11-27T18:46:28.694Z,7.70
2017-11-27T18:48:56.159Z,7.70
2017-11-27T18:51:24.386Z,7.50
2017-11-27T18:53:51.863Z,7.40
2017-11-27T18:56:20.099Z,7.40
2017-11-27T18:58:47.553Z,7.30
2017-11-27T19:01:15.120Z,7.30
2017-11-27T19:03:43.352Z,7.50
2017-11-27T19:06:10.851Z,7.40
2017-11-27T19:08:38.360Z,7.50
2017-11-27T19:11:06.668Z,7.60
2017-11-27T19:13:34.122Z,7.60
2017-11-27T19:16:01.598Z,7.50
2017-11-27T19:18:29.849Z,7.40
2017-11-27T19:20:57.409Z,7.30
2017-11-27T19:23:25.767Z,7.10
2017-11-27T19:25:53.227Z,7.10
2017-11-27T19:28:20.682Z,7.10
2017-11-27T19:30:48.166Z,7.20
2017-11-27T19:33:15.629Z,7.20
2017-11-27T19:35:43.113Z,7.30
2017-11-27T19:38:10.583Z,7.30
2017-11-27T19:40:38.051Z,7.40
2017-11-27T19:43:05.531Z,7.50
2017-11-27T19:45:32.991Z,7.60
2017-11-27T19:48:00.450Z,7.60
2017-11-27T19:50:27.936Z,7.70
2017-11-27T19:52:56.167Z,7.70
2017-11-27T19:55:23.729Z,7.70
2017-11-27T19:57:51.988Z,7.70
2017-11-27T20:00:20.251Z,7.50
2017-11-27T20:02:48.470Z,7.30
2017-11-27T20:05:15.950Z,7.30
2017-11-27T20:07:44.178Z,6.80
2017-11-27T20:10:11.663Z,6.80
2017-11-27T20:12:39.890Z,6.60
2017-11-27T20:15:07.449Z,6.60
2017-11-27T20:17:34.929Z,6.60
2017-11-27T20:20:02.456Z,6.60
2017-11-27T20:22:29.986Z,6.60
2017-11-27T20:24:58.250Z,6.50
2017-11-27T20:27:25.687Z,6.50
2017-11-27T20:29:53.938Z,6.50
2017-11-27T20:32:21.430Z,6.40
2017-11-27T20:34:48.889Z,6.50
2017-11-27T20:37:16.384Z,6.50
2017-11-27T20:39:44.607Z,6.50
2017-11-27T20:42:12.077Z,6.50
2017-11-27T20:44:40.294Z,6.50
2017-11-27T20:47:07.770Z,6.50
2017-11-27T20:49:35.998Z,6.60
2017-11-27T20:52:03.461Z,6.60
2017-11-27T20:54:30.934Z,6.60
2017-11-27T20:56:58.458Z,6.70
2017-11-27T20:59:26.749Z,6.80
2017-11-27T21:01:54.227Z,6.80
2017-11-27T21:04:21.811Z,6.80
2017-11-27T21:06:50.174Z,6.90
2017-11-27T21:09:18.410Z,7.00
2017-11-27T21:11:45.869Z,7.00
2017-11-27T21:14:14.116Z,7.10
2017-11-27T21:16:43.095Z,7.10
2017-11-27T21:19:10.590Z,7.10
2017-11-27T21:21:38.054Z,7.00
2017-11-27T21:24:05.539Z,7.00
2017-11-27T21:26:33.762Z,6.90
2017-11-27T21:29:01.338Z,6.90
2017-11-27T21:31:29.598Z,6.80
2017-11-27T21:33:57.902Z,6.80
2017-11-27T21:36:25.366Z,6.80
2017-11-27T21:38:52.839Z,6.70
2017-11-27T21:41:21.102Z,6.60
2017-11-27T21:43:49.364Z,6.60
2017-11-27T21:46:17.638Z,6.60
2017-11-27T21:48:45.859Z,6.50
2017-11-27T21:51:13.319Z,6.50
2017-11-27T21:53:40.785Z,6.40
2017-11-27T21:56:08.258Z,6.40
2017-11-27T21:58:35.714Z,6.30
2017-11-27T22:01:03.190Z,6.30
2017-11-27T22:03:31.437Z,6.30
2017-11-27T22:05:59.664Z,6.20
2017-11-27T22:08:27.173Z,6.20
2017-11-27T22:10:54.766Z,6.20
2017-11-27T22:13:22.229Z,6.20
2017-11-27T22:15:49.701Z,6.20
2017-11-27T22:18:17.222Z,6.20
2017-11-27T22:20:45.493Z,6.20
2017-11-27T22:23:13.758Z,6.20
2017-11-27T22:25:42.028Z,6.20
2017-11-27T22:28:10.278Z,6.20
2017-11-27T22:30:38.525Z,6.10
2017-11-27T22:33:06.762Z,6.10
2017-11-27T22:35:34.236Z,6.10
2017-11-27T22:38:02.494Z,6.10
2017-11-27T22:40:30.714Z,6.10
2017-11-27T22:42:58.204Z,6.10
2017-11-27T22:45:25.666Z,6.10
2017-11-27T22:47:53.171Z,6.00
2017-11-27T22:50:21.440Z,6.00
2017-11-27T22:52:49.659Z,6.00
2017-11-27T22:55:17.114Z,6.00
2017-11-27T22:57:44.586Z,6.00
2017-11-27T23:00:12.838Z,6.10
2017-11-27T23:02:41.058Z,6.10
2017-11-27T23:05:08.533Z,6.00
2017-11-27T23:07:35.982Z,6.00
2017-11-27T23:10:04.202Z,6.10
2017-11-27T23:12:31.682Z,6.10
2017-11-27T23:14:59.943Z,6.20
2017-11-27T23:17:28.202Z,6.10
2017-11-27T23:19:56.434Z,6.10
2017-11-27T23:22:23.914Z,6.10
2017-11-27T23:24:52.138Z,6.10
2017-11-27T23:27:19.594Z,6.10
2017-11-27T23:29:47.062Z,6.10
2017-11-27T23:32:14.594Z,6.00
2017-11-27T23:34:42.813Z,6.10
2017-11-27T23:37:10.301Z,6.00
2017-11-27T23:39:38.526Z,6.10
2017-11-27T23:42:06.763Z,6.10
2017-11-27T23:44:34.214Z,6.10
2017-11-27T23:47:01.714Z,6.10
2017-11-27T23:49:29.170Z,6.10
2017-11-27T23:51:56.645Z,6.10
2017-11-27T23:54:24.130Z,6.10
2017-11-27T23:56:52.385Z,6.20
2017-11-27T23:59:20.609Z,6.20
